الصفحة الرئيسية
METAR-TAF:

METAR-TAF

مطار :

مطار بيرث

بيرث, أستراليا

دائرة عرض: 31-56S, خط طول: 115-57E, ارتفاع: 20 متر

مراقبة الطقس الحالي

تاريخ ووقت الإصدار 25 دقيقة قبل الساعة 17:30UTC
ريح 6 عقدة من الجنوب/الجنوب الغربي
درجة الحرارة 8°درجة مئوية
الرطوبة 100%
ضغط 1022 hPa
الرؤية 10 كم أو أكثر
الغيوم لا تقل 1500 م ولا وجود لمزنة ركامية السحاب الأسود

METAR: YPPH 251730Z 21006KT CAVOK 08/08 Q1022 NOSIG

زمن: 01:55 (17:55 UTC)

توقعات

تاريخ ووقت الإصدار 47 دقيقة قبل الساعة 17:08UTC
التوقعات صالحة من25 الساعة 18 UTC إلى 26 الساعة 24 UTC
ريح 6 عقدة من الجنوب
الرؤية 10 كم أو أكثر
الغيوم لا تقل 1500 م ولا وجود لمزنة ركامية السحاب الأسود
من 26 الساعة 0000 UTC
ريح 8 عقدة من الشرق/الجنوب الشرقي
الرؤية 10 كم أو أكثر
غيوم مفككة على ارتفاع 4000 قدم
من 26 الساعة 0400 UTC
ريح 12 عقدة من الجنوب الغربي
الرؤية 10 كم أو أكثر
غيوم متفرقة على ارتفاع 4500 قدم
من 26 الساعة 1200 UTC
ريح 8 عقدة من الجنوب
الرؤية 10 كم أو أكثر
الغيوم لا تقل 1500 م ولا وجود لمزنة ركامية السحاب الأسود

TAF: YPPH 251708Z 2518/2624 18006KT CAVOK FM260000 12008KT 9999 BKN040 FM260400 22012KT 9999 SCT045 FM261200 19008KT CAVOK

أرصاد الطقس والتوقعات من أكثر من 4000 مطار (تقارير الطقس للمطار METAR والتنبؤ بالطقس بالمطارTAF).

المحطات المتاحة هي النقط الصفراء والحمراء على الخريطة.

حرك المؤشر فوق النقطة لمعرفة اسم المحطة.

ثم انقر لمعرفة أرصاد وتوقعات الطقس.

لتغيير الخارطة: اضغط على الأزرار الخضراء مع رمز الصليب الأسود للتكبير. على الزر الأخضر مع شرطة للتصغير، أو على الأسهم الخضراء للخرائط المجاورة.


METAR-TAF: